Time;durP1;ratioP1;P1;durP2;ratioP2;P2;SDS_P1;SDS_P2;PMS_P1;PMS_P2;Temp;Humidity;BMP_temperature;BMP_pressure;BME280_temperature;BME280_humidity;BME280_pressure;Samples;Min_cycle;Max_cycle;Signal;HPM_P1;HPM_P2
2021/08/01 00:01:29;;;;;;;0.40;0.00;;;;;;;21.36;60.84;99649.44;126015;1092;102903;-70
2021/08/01 00:03:56;;;;;;;0.40;0.00;;;;;;;21.33;61.61;99647.00;126010;1093;113223;-70
2021/08/01 00:06:25;;;;;;;0.40;0.00;;;;;;;21.30;61.66;99630.98;126101;1093;102902;-71
2021/08/01 00:08:53;;;;;;;0.40;0.00;;;;;;;21.24;61.17;99642.34;126097;1095;103049;-70
2021/08/01 00:11:21;;;;;;;0.40;0.00;;;;;;;21.26;61.18;99638.53;125992;1093;113773;-70
2021/08/01 00:13:48;;;;;;;0.40;0.00;;;;;;;21.31;61.38;99644.42;126075;1093;102976;-70
2021/08/01 00:16:15;;;;;;;0.40;0.00;;;;;;;21.40;61.54;99648.19;126036;1092;113871;-70
2021/08/01 00:18:43;;;;;;;0.40;0.00;;;;;;;21.28;61.50;99649.23;126072;1093;103036;-70
2021/08/01 00:21:10;;;;;;;0.40;0.00;;;;;;;21.19;61.55;99648.13;125910;1093;114132;-70
2021/08/01 00:23:37;;;;;;;0.40;0.00;;;;;;;21.12;61.81;99657.77;126095;1093;103062;-71
2021/08/01 00:26:04;;;;;;;0.40;0.00;;;;;;;21.04;61.60;99651.11;126110;1093;103055;-71
2021/08/01 00:28:31;;;;;;;0.40;0.00;;;;;;;20.97;61.93;99654.47;125991;1093;113344;-71
2021/08/01 00:30:59;;;;;;;0.40;0.10;;;;;;;20.97;62.09;99655.32;126068;1093;103023;-71
2021/08/01 00:33:27;;;;;;;0.40;0.10;;;;;;;20.92;62.20;99660.25;125991;1093;114460;-69
2021/08/01 00:35:55;;;;;;;0.40;0.00;;;;;;;20.86;61.79;99656.20;126153;1092;102906;-70
2021/08/01 00:38:22;;;;;;;0.40;0.00;;;;;;;20.82;61.85;99657.44;126040;1096;102895;-70
2021/08/01 00:40:49;;;;;;;0.40;0.00;;;;;;;20.77;62.78;99662.36;125985;1093;113938;-70
2021/08/01 00:43:16;;;;;;;0.40;0.10;;;;;;;20.77;62.62;99656.95;126081;1093;103008;-70
2021/08/01 00:45:43;;;;;;;0.40;0.00;;;;;;;20.81;62.30;99658.42;126042;1093;113900;-71
2021/08/01 00:48:13;;;;;;;0.40;0.00;;;;;;;20.80;62.63;99659.40;126069;1093;103153;-71
2021/08/01 00:50:42;;;;;;;0.40;0.00;;;;;;;20.81;62.46;99663.83;126103;1093;102996;-71
2021/08/01 00:53:11;;;;;;;0.40;0.00;;;;;;;20.87;62.73;99662.47;125987;1094;113950;-71
2021/08/01 00:55:40;;;;;;;0.40;0.00;;;;;;;20.90;62.87;99669.48;126090;1093;102955;-71
2021/08/01 00:58:08;;;;;;;0.40;0.05;;;;;;;20.88;62.62;99664.19;126025;1093;113928;-70
2021/08/01 01:01:07;;;;;;;0.40;0.00;;;;;;;20.85;62.74;99662.59;126077;1093;103052;-71
2021/08/01 01:03:41;;;;;;;0.40;0.10;;;;;;;20.83;62.69;99667.29;125972;1092;114131;-71
2021/08/01 01:06:26;;;;;;;0.40;0.00;;;;;;;20.88;62.44;99665.05;126109;1092;102980;-71
2021/08/01 01:09:14;;;;;;;0.40;0.00;;;;;;;20.91;62.31;99676.62;126088;1093;103054;-71
2021/08/01 01:11:43;;;;;;;0.40;0.00;;;;;;;20.83;62.43;99669.11;126081;1093;103039;-71
2021/08/01 01:14:15;;;;;;;0.40;0.00;;;;;;;20.77;62.55;99675.05;126069;1093;102950;-69
2021/08/01 01:16:55;;;;;;;0.40;0.00;;;;;;;20.79;62.06;99670.35;125981;1093;113976;-70
2021/08/01 01:20:01;;;;;;;0.40;0.00;;;;;;;20.74;61.92;99670.73;126082;1093;103594;-70
2021/08/01 01:22:37;;;;;;;0.40;0.00;;;;;;;20.70;62.13;99674.68;125981;1093;113925;-69
2021/08/01 01:25:12;;;;;;;0.40;0.00;;;;;;;20.63;62.42;99667.98;126030;1093;102901;-71
2021/08/01 01:27:44;;;;;;;0.40;0.00;;;;;;;20.62;62.60;99666.26;125996;1092;114108;-71
2021/08/01 01:30:12;;;;;;;0.40;0.00;;;;;;;20.62;62.71;99668.97;127263;1092;100752;-71
2021/08/01 01:32:56;;;;;;;0.40;0.00;;;;;;;20.58;62.28;99670.20;126063;1093;102923;-71
2021/08/01 01:35:23;;;;;;;0.40;0.00;;;;;;;20.52;62.84;99666.99;125999;1093;114275;-71
2021/08/01 01:37:51;;;;;;;0.40;0.00;;;;;;;20.56;62.16;99662.20;126107;1092;103002;-71
2021/08/01 01:40:21;;;;;;;0.40;0.00;;;;;;;20.58;62.03;99665.66;125998;1096;113997;-70
2021/08/01 01:42:51;;;;;;;0.40;0.10;;;;;;;20.55;62.13;99660.48;127576;1093;101180;-71
2021/08/01 01:45:19;;;;;;;0.40;0.10;;;;;;;20.46;61.96;99658.51;127244;1093;103023;-71
2021/08/01 01:47:47;;;;;;;0.40;0.10;;;;;;;20.52;61.83;99658.88;126239;1093;114462;-70
2021/08/01 01:50:16;;;;;;;0.40;0.03;;;;;;;20.44;61.90;99666.75;126063;1093;102863;-70
2021/08/01 01:52:49;;;;;;;0.40;0.10;;;;;;;20.40;62.14;99670.68;125998;1093;114011;-71
2021/08/01 01:55:17;;;;;;;0.40;0.00;;;;;;;20.33;62.26;99674.87;126145;1092;102995;-71
2021/08/01 01:57:46;;;;;;;0.40;0.00;;;;;;;20.28;62.58;99683.33;126388;1096;114268;-70
2021/08/01 02:00:14;;;;;;;0.40;0.00;;;;;;;20.30;62.31;99675.97;127682;1093;100975;-71
2021/08/01 02:02:42;;;;;;;0.40;0.00;;;;;;;20.32;62.53;99681.25;127596;1092;101218;-71
2021/08/01 02:05:10;;;;;;;0.40;0.00;;;;;;;20.34;61.89;99677.45;126480;1094;114195;-71
2021/08/01 02:07:38;;;;;;;0.40;0.00;;;;;;;20.36;62.25;99675.46;126084;1093;103023;-70
2021/08/01 02:10:14;;;;;;;0.40;0.00;;;;;;;20.32;61.82;99673.14;126049;1093;114314;-70
2021/08/01 02:12:54;;;;;;;0.40;0.00;;;;;;;20.36;61.81;99670.05;126169;1093;102899;-69
2021/08/01 02:15:31;;;;;;;0.40;0.00;;;;;;;20.35;61.98;99670.18;126052;1093;102877;-70
2021/08/01 02:18:04;;;;;;;0.40;0.10;;;;;;;20.42;61.68;99675.97;126115;1093;102982;-71
2021/08/01 02:20:39;;;;;;;0.40;0.10;;;;;;;20.34;61.76;99676.56;126107;1093;102889;-70
2021/08/01 02:23:09;;;;;;;0.40;0.10;;;;;;;20.37;62.19;99676.34;125933;1093;114232;-72
2021/08/01 02:25:37;;;;;;;0.40;0.00;;;;;;;20.38;61.60;99681.63;126048;1093;102911;-72
2021/08/01 02:28:08;;;;;;;0.40;0.00;;;;;;;20.33;61.70;99678.42;126008;1093;114231;-72
2021/08/01 02:30:37;;;;;;;0.40;0.00;;;;;;;20.21;61.96;99682.09;126131;1093;102888;-70
2021/08/01 02:33:05;;;;;;;0.40;0.10;;;;;;;20.17;62.31;99673.36;126073;1095;102996;-71
2021/08/01 02:35:33;;;;;;;0.40;0.10;;;;;;;20.25;62.19;99680.02;126207;1095;113977;-70
2021/08/01 02:38:01;;;;;;;0.40;0.10;;;;;;;20.24;62.01;99676.44;126082;1093;102871;-70
2021/08/01 02:40:32;;;;;;;0.40;0.10;;;;;;;20.32;61.94;99670.44;126024;1093;114327;-70
2021/08/01 02:43:02;;;;;;;0.40;0.10;;;;;;;20.26;61.63;99681.72;126362;1093;102999;-70
2021/08/01 02:45:30;;;;;;;0.40;0.10;;;;;;;20.24;62.02;99676.44;126629;1093;114076;-70
2021/08/01 02:48:00;;;;;;;0.40;0.00;;;;;;;20.29;61.66;99668.83;126073;1093;103071;-72
2021/08/01 02:50:29;;;;;;;0.40;0.00;;;;;;;20.29;61.72;99662.58;126667;1093;103060;-70
2021/08/01 02:53:03;;;;;;;0.40;0.10;;;;;;;20.20;61.99;99673.11;125985;1095;113930;-72
2021/08/01 02:55:32;;;;;;;0.40;0.10;;;;;;;20.14;62.08;99673.61;126157;1093;103474;-72
2021/08/01 02:58:01;;;;;;;0.40;0.08;;;;;;;20.11;62.40;99676.53;125966;1093;114136;-72
2021/08/01 03:00:28;;;;;;;0.40;0.00;;;;;;;20.16;62.20;99679.73;126143;1094;102946;-73
2021/08/01 03:02:57;;;;;;;0.40;0.00;;;;;;;20.17;62.10;99675.21;126151;1093;103066;-73
2021/08/01 03:05:29;;;;;;;0.40;0.10;;;;;;;20.11;62.27;99673.82;126333;1093;113948;-69
2021/08/01 03:07:56;;;;;;;0.40;0.10;;;;;;;20.09;62.19;99673.10;126102;1093;103461;-70
2021/08/01 03:10:23;;;;;;;0.40;0.10;;;;;;;20.22;61.77;99675.72;125991;1093;114065;-70
2021/08/01 03:12:51;;;;;;;0.40;0.00;;;;;;;20.21;61.66;99676.69;126074;1093;103053;-71
2021/08/01 03:15:18;;;;;;;0.40;0.00;;;;;;;20.20;61.59;99681.22;126096;1096;102968;-70
2021/08/01 03:17:46;;;;;;;0.40;0.10;;;;;;;20.15;62.10;99672.63;125967;1093;113246;-70
2021/08/01 03:20:13;;;;;;;0.40;0.00;;;;;;;20.14;62.37;99670.02;126100;1092;102898;-71
2021/08/01 03:22:40;;;;;;;0.40;0.00;;;;;;;20.01;62.35;99683.66;126008;1093;113900;-70
2021/08/01 03:25:08;;;;;;;0.40;0.00;;;;;;;19.95;62.67;99676.86;126067;1093;103024;-70
2021/08/01 03:27:35;;;;;;;0.40;0.00;;;;;;;19.91;62.25;99674.52;125971;1094;114259;-70
2021/08/01 03:30:02;;;;;;;0.40;0.10;;;;;;;19.93;62.93;99678.83;126058;1091;103049;-70
2021/08/01 03:32:29;;;;;;;0.40;0.10;;;;;;;19.97;62.82;99674.06;126091;1093;103052;-71
2021/08/01 03:34:57;;;;;;;0.40;0.10;;;;;;;19.96;62.52;99677.73;125980;1093;113968;-70
2021/08/01 03:37:27;;;;;;;0.40;0.10;;;;;;;19.91;62.99;99680.78;126058;1092;103307;-70
2021/08/01 03:39:55;;;;;;;0.40;0.10;;;;;;;19.97;62.88;99677.61;126012;1093;114224;-70
2021/08/01 03:42:22;;;;;;;0.40;0.00;;;;;;;20.05;62.75;99687.84;126070;1095;102900;-70
2021/08/01 03:44:50;;;;;;;0.40;0.10;;;;;;;20.03;62.51;99679.85;126071;1096;103048;-69
2021/08/01 03:47:17;;;;;;;0.40;0.00;;;;;;;20.10;62.32;99673.95;126012;1093;113941;-71
2021/08/01 03:49:44;;;;;;;0.40;0.00;;;;;;;20.13;62.48;99684.55;126120;1093;102889;-71
2021/08/01 03:52:12;;;;;;;0.40;0.00;;;;;;;20.15;62.39;99686.15;126048;1093;113864;-70
2021/08/01 03:54:39;;;;;;;0.40;0.10;;;;;;;20.19;62.57;99684.05;126089;1092;103514;-69
2021/08/01 03:57:06;;;;;;;0.40;0.00;;;;;;;20.19;62.97;99679.52;126129;1093;102911;-69
2021/08/01 03:59:37;;;;;;;0.40;0.00;;;;;;;20.18;62.86;99679.64;126040;1092;112896;-70
2021/08/01 04:02:04;;;;;;;0.40;0.00;;;;;;;20.20;63.26;99683.07;126087;1093;102974;-71
2021/08/01 04:04:34;;;;;;;0.40;0.00;;;;;;;20.23;63.21;99680.11;125993;1093;113975;-70
2021/08/01 04:07:01;;;;;;;0.40;0.00;;;;;;;20.28;63.55;99683.33;126112;1092;103040;-70
2021/08/01 04:09:29;;;;;;;0.40;0.00;;;;;;;20.30;63.24;99675.09;126078;1092;114196;-71
2021/08/01 04:11:56;;;;;;;0.40;0.00;;;;;;;20.32;62.95;99671.28;126106;1092;103023;-71
2021/08/01 04:14:25;;;;;;;0.40;0.07;;;;;;;20.35;62.83;99670.18;126086;1093;103029;-71
2021/08/01 04:16:53;;;;;;;0.40;0.00;;;;;;;20.36;62.76;99675.46;126013;1093;113950;-70
2021/08/01 04:19:20;;;;;;;0.40;0.10;;;;;;;20.36;62.56;99680.88;126148;1093;102932;-70
2021/08/01 04:21:47;;;;;;;0.40;0.00;;;;;;;20.42;62.61;99675.97;126048;1093;114136;-71
2021/08/01 04:24:14;;;;;;;0.40;0.00;;;;;;;20.53;62.88;99684.95;126088;1092;102951;-71
2021/08/01 04:26:42;;;;;;;0.40;0.00;;;;;;;20.65;63.10;99690.38;126115;1093;102918;-69
2021/08/01 04:29:09;;;;;;;0.40;0.10;;;;;;;20.75;63.27;99685.12;126041;1093;114085;-71
2021/08/01 04:31:36;;;;;;;0.40;0.00;;;;;;;20.84;62.90;99682.52;126141;1095;102876;-70
2021/08/01 04:34:03;;;;;;;0.40;0.00;;;;;;;20.91;62.78;99690.16;126061;1091;114531;-70
2021/08/01 04:36:31;;;;;;;0.40;0.00;;;;;;;20.92;60.79;99695.44;126077;1095;102900;-70
2021/08/01 04:38:58;;;;;;;0.40;0.00;;;;;;;20.91;60.53;99691.00;126164;1096;103028;-70
2021/08/01 04:41:25;;;;;;;0.40;0.00;;;;;;;20.92;59.95;99702.70;126105;1092;113931;-70
2021/08/01 04:43:52;;;;;;;0.40;0.00;;;;;;;20.93;60.33;99701.73;126120;1093;102969;-71
2021/08/01 04:46:19;;;;;;;0.40;0.00;;;;;;;20.95;59.79;99711.45;126034;1093;114693;-71
2021/08/01 04:48:46;;;;;;;0.40;0.00;;;;;;;20.97;59.57;99714.03;126095;1093;102960;-71
2021/08/01 04:51:13;;;;;;;0.40;0.00;;;;;;;20.96;58.93;99705.03;126151;1093;102900;-70
2021/08/01 04:53:40;;;;;;;0.40;0.00;;;;;;;20.98;59.32;99702.19;126042;1092;114207;-71
2021/08/01 04:56:10;;;;;;;0.40;0.00;;;;;;;21.03;59.56;99699.97;126113;1093;102913;-71
2021/08/01 04:58:37;;;;;;;0.40;0.00;;;;;;;21.00;59.71;99695.67;126177;1093;113914;-70
2021/08/01 05:01:15;;;;;;;0.40;0.00;;;;;;;21.04;59.74;99691.72;126060;1092;103016;-71
2021/08/01 05:03:43;;;;;;;0.40;0.00;;;;;;;21.12;59.32;99690.25;126023;1093;114995;-70
2021/08/01 05:06:10;;;;;;;0.40;0.10;;;;;;;21.19;58.80;99689.63;126059;1093;103331;-70
2021/08/01 05:08:38;;;;;;;0.40;0.00;;;;;;;21.24;60.68;99683.81;126093;1093;102943;-70
2021/08/01 05:11:06;;;;;;;0.40;0.00;;;;;;;21.27;59.59;99686.27;126003;1093;114343;-71
2021/08/01 05:13:34;;;;;;;0.40;0.00;;;;;;;21.32;59.40;99689.45;126204;1095;102898;-70
2021/08/01 05:16:01;;;;;;;0.40;0.00;;;;;;;21.37;57.14;99689.94;125979;1095;114501;-70
2021/08/01 05:18:28;;;;;;;0.40;0.10;;;;;;;21.47;56.63;99705.42;126069;1092;102991;-70
2021/08/01 05:20:55;;;;;;;0.40;0.00;;;;;;;21.51;55.80;99696.05;126070;1093;103026;-71
2021/08/01 05:23:23;;;;;;;0.40;0.07;;;;;;;21.48;56.10;99702.59;125984;1092;113936;-71
2021/08/01 05:25:50;;;;;;;0.40;0.00;;;;;;;21.44;56.31;99711.11;126081;1092;103045;-71
2021/08/01 05:28:17;;;;;;;0.40;0.10;;;;;;;21.52;55.84;99717.59;126014;1092;114530;-71
2021/08/01 05:30:44;;;;;;;0.40;0.10;;;;;;;21.57;54.75;99722.68;126043;1093;102958;-71
2021/08/01 05:33:12;;;;;;;0.40;0.07;;;;;;;21.56;53.84;99725.52;126067;1093;102875;-71
2021/08/01 05:35:39;;;;;;;0.40;0.00;;;;;;;21.59;53.79;99723.39;125970;1093;114262;-69
2021/08/01 05:38:07;;;;;;;0.40;0.00;;;;;;;21.66;53.59;99726.45;126139;1093;102875;-70
2021/08/01 05:40:35;;;;;;;0.40;0.00;;;;;;;21.71;53.75;99727.81;125941;1093;114743;-70
2021/08/01 05:43:03;;;;;;;0.40;0.10;;;;;;;21.76;53.79;99730.12;126081;1096;103058;-71
2021/08/01 05:45:30;;;;;;;0.40;0.00;;;;;;;21.81;53.42;99733.31;125978;1093;114553;-70
2021/08/01 05:47:58;;;;;;;0.40;0.00;;;;;;;21.87;54.04;99724.67;126059;1093;102969;-70
2021/08/01 05:50:25;;;;;;;0.40;0.00;;;;;;;21.93;51.91;99725.99;126097;1093;102879;-70
2021/08/01 05:52:52;;;;;;;0.40;0.00;;;;;;;21.96;52.33;99717.59;126005;1093;114405;-70
2021/08/01 05:55:20;;;;;;;0.40;0.00;;;;;;;22.05;52.44;99718.66;126118;1093;103049;-71
2021/08/01 05:57:47;;;;;;;0.40;0.00;;;;;;;22.11;52.18;99720.86;125976;1093;114746;-70
2021/08/01 06:00:14;;;;;;;0.40;0.10;;;;;;;22.20;52.95;99709.19;126102;1096;102963;-70
2021/08/01 06:02:42;;;;;;;0.40;0.00;;;;;;;22.28;52.02;99703.11;126150;1095;103048;-71
2021/08/01 06:05:11;;;;;;;0.40;0.00;;;;;;;22.36;51.43;99708.75;126029;1093;114145;-71
2021/08/01 06:07:38;;;;;;;0.40;0.00;;;;;;;22.41;50.93;99708.38;126120;1095;103023;-71
2021/08/01 06:10:05;;;;;;;0.40;0.00;;;;;;;22.47;50.72;99701.55;126000;1093;114510;-70
2021/08/01 06:12:33;;;;;;;0.40;0.00;;;;;;;22.56;50.22;99697.17;126100;1095;102904;-70
2021/08/01 06:15:00;;;;;;;0.40;0.00;;;;;;;22.69;48.96;99703.23;126130;1095;102974;-69
2021/08/01 06:17:32;;;;;;;0.40;0.00;;;;;;;22.79;48.99;99690.58;125986;1093;113530;-70
2021/08/01 06:19:59;;;;;;;0.40;0.00;;;;;;;22.83;47.99;99697.45;126081;1093;102874;-70
2021/08/01 06:22:26;;;;;;;0.40;0.00;;;;;;;22.82;48.90;99697.59;126094;1093;113392;-70
2021/08/01 06:24:54;;;;;;;0.40;0.10;;;;;;;22.82;49.52;99708.45;126104;1093;102932;-71
2021/08/01 06:27:21;;;;;;;0.40;0.00;;;;;;;22.83;50.14;99712.86;126036;1093;114745;-71
2021/08/01 06:29:48;;;;;;;0.40;0.10;;;;;;;22.88;49.07;99711.48;126079;1093;103371;-71
2021/08/01 06:32:16;;;;;;;0.40;0.00;;;;;;;23.01;49.22;99711.22;126105;1093;102888;-71
2021/08/01 06:34:43;;;;;;;0.40;0.00;;;;;;;23.10;48.52;99705.95;126063;1092;114467;-69
2021/08/01 06:37:10;;;;;;;0.40;0.00;;;;;;;23.09;46.50;99702.39;126130;1092;102962;-70
2021/08/01 06:39:37;;;;;;;0.40;0.00;;;;;;;23.05;46.05;99707.22;126173;1092;113049;-71
2021/08/01 06:42:04;;;;;;;0.40;0.00;;;;;;;23.07;47.88;99711.67;126128;1092;103520;-71
2021/08/01 06:44:31;;;;;;;0.40;0.00;;;;;;;23.13;48.79;99716.55;126195;1092;103047;-71
2021/08/01 06:46:59;;;;;;;0.40;0.00;;;;;;;23.21;46.55;99714.03;126040;1093;113926;-69
2021/08/01 06:49:26;;;;;;;0.40;0.00;;;;;;;23.31;48.10;99711.33;126135;1092;102998;-71
2021/08/01 06:52:12;;;;;;;0.40;0.00;;;;;;;23.49;47.24;99704.22;125949;1093;114023;-70
2021/08/01 06:54:39;;;;;;;0.40;0.00;;;;;;;23.57;46.69;99705.39;126083;1092;102999;-71
2021/08/01 06:57:06;;;;;;;0.40;0.00;;;;;;;23.60;46.58;99711.38;126088;1093;103013;-71
2021/08/01 06:59:33;;;;;;;0.40;0.00;;;;;;;23.68;46.11;99711.52;125972;1093;113862;-71
2021/08/01 07:02:00;;;;;;;0.40;0.00;;;;;;;23.74;44.41;99710.12;126101;1093;103058;-71
2021/08/01 07:04:28;;;;;;;0.40;0.00;;;;;;;23.83;44.35;99705.66;126050;1093;113936;-71
2021/08/01 07:06:55;;;;;;;0.40;0.00;;;;;;;23.87;43.55;99707.09;126076;1092;102881;-71
2021/08/01 07:09:25;;;;;;;0.40;0.00;;;;;;;23.91;43.43;99708.55;125958;1093;114514;-71
2021/08/01 07:11:52;;;;;;;0.40;0.00;;;;;;;23.98;43.33;99711.59;126039;1091;103010;-71
2021/08/01 07:14:19;;;;;;;0.40;0.00;;;;;;;24.09;42.82;99713.29;126114;1092;102928;-69
2021/08/01 07:16:46;;;;;;;0.40;0.00;;;;;;;24.17;43.10;99710.70;125956;1093;113877;-70
2021/08/01 07:19:14;;;;;;;0.40;0.00;;;;;;;24.26;42.77;99712.55;126061;1093;103010;-70
2021/08/01 07:21:41;;;;;;;0.40;0.00;;;;;;;24.35;43.88;99711.67;125948;1092;114303;-70
2021/08/01 07:24:08;;;;;;;0.40;0.03;;;;;;;24.38;42.29;99715.97;126011;1093;102889;-70
2021/08/01 07:26:35;;;;;;;0.40;0.00;;;;;;;24.43;40.94;99716.39;126056;1093;102989;-70
2021/08/01 07:29:03;;;;;;;0.40;0.00;;;;;;;24.52;42.10;99712.78;125950;1092;114381;-71
2021/08/01 07:31:30;;;;;;;0.40;0.00;;;;;;;24.61;41.30;99716.47;126038;1092;102997;-70
2021/08/01 07:33:57;;;;;;;0.40;0.00;;;;;;;24.66;40.12;99716.07;126083;1093;114056;-70
2021/08/01 07:36:24;;;;;;;0.40;0.00;;;;;;;24.71;41.32;99697.39;126091;1092;103010;-72
2021/08/01 07:38:52;;;;;;;0.40;0.00;;;;;;;24.82;42.75;99696.38;126066;1093;102909;-72
2021/08/01 07:41:19;;;;;;;0.40;0.00;;;;;;;24.98;43.18;99690.28;125952;1093;113937;-72
2021/08/01 07:43:46;;;;;;;0.40;0.00;;;;;;;25.14;40.78;99684.17;126039;1093;102995;-72
2021/08/01 07:46:14;;;;;;;0.40;0.00;;;;;;;25.21;40.78;99683.38;125979;1093;114359;-72
2021/08/01 07:48:41;;;;;;;0.40;0.00;;;;;;;25.30;40.09;99686.23;126122;1093;102975;-72
2021/08/01 07:51:08;;;;;;;0.40;0.00;;;;;;;25.36;40.09;99685.63;126044;1092;103279;-72
2021/08/01 07:53:35;;;;;;;0.40;0.00;;;;;;;25.50;40.47;99682.38;125991;1093;113978;-72
2021/08/01 07:56:02;;;;;;;0.40;0.00;;;;;;;25.64;39.49;99682.84;126124;1093;103019;-72
2021/08/01 07:58:30;;;;;;;0.40;0.00;;;;;;;25.71;39.08;99683.92;126103;1092;114054;-72
2021/08/01 08:00:57;;;;;;;0.40;0.00;;;;;;;25.79;38.36;99688.60;127268;1092;100937;-72
2021/08/01 08:03:25;;;;;;;0.40;0.00;;;;;;;25.82;38.74;99693.77;125935;1093;114662;-72
2021/08/01 08:05:52;;;;;;;0.40;0.00;;;;;;;25.77;39.14;99696.95;126070;1092;103342;-73
2021/08/01 08:08:19;;;;;;;0.40;0.00;;;;;;;25.68;40.39;99709.67;126067;1092;103034;-73
2021/08/01 08:10:48;;;;;;;0.40;0.00;;;;;;;25.58;41.17;99700.69;125986;1093;112960;-72
2021/08/01 08:13:15;;;;;;;0.40;0.00;;;;;;;25.45;40.97;99714.69;126061;1093;103045;-72
2021/08/01 08:15:42;;;;;;;0.40;0.00;;;;;;;25.35;39.74;99722.94;125962;1092;113049;-73
2021/08/01 08:18:10;;;;;;;0.40;0.00;;;;;;;25.29;40.80;99719.94;126114;1093;103023;-73
2021/08/01 08:20:37;;;;;;;0.40;0.00;;;;;;;25.24;40.85;99711.36;126081;1094;102882;-72
2021/08/01 08:23:04;;;;;;;0.40;0.00;;;;;;;25.08;44.50;99704.69;126017;1092;114477;-72
2021/08/01 08:25:32;;;;;;;0.40;0.00;;;;;;;25.01;43.60;99706.31;126082;1093;103019;-73
2021/08/01 08:28:01;;;;;;;0.40;0.00;;;;;;;24.98;43.39;99701.17;126014;1093;114259;-73
2021/08/01 08:30:29;;;;;;;0.40;0.00;;;;;;;24.97;43.63;99694.01;126114;1092;102711;-73
2021/08/01 08:32:56;;;;;;;0.40;0.00;;;;;;;24.98;44.45;99691.13;126034;1093;103025;-73
2021/08/01 08:35:23;;;;;;;0.40;0.00;;;;;;;25.03;44.39;99693.38;125953;1093;114178;-73
2021/08/01 08:37:52;;;;;;;0.40;0.00;;;;;;;25.07;44.07;99692.09;126095;1093;102999;-70
2021/08/01 08:40:21;;;;;;;0.40;0.00;;;;;;;25.21;43.97;99693.44;125948;1093;114235;-72
2021/08/01 08:42:50;;;;;;;0.40;0.00;;;;;;;25.41;43.06;99699.66;126048;1092;103018;-73
2021/08/01 08:45:18;;;;;;;0.40;0.00;;;;;;;25.50;42.17;99703.34;126139;1093;103010;-73
2021/08/01 08:47:48;;;;;;;0.40;0.00;;;;;;;25.45;40.95;99706.52;126236;1093;113995;-72
2021/08/01 08:50:20;;;;;;;0.40;0.00;;;;;;;25.42;43.59;99701.38;126304;1093;102914;-71
2021/08/01 08:52:48;;;;;;;0.40;0.00;;;;;;;25.36;42.52;99691.95;126014;1093;114207;-72
2021/08/01 08:55:15;;;;;;;0.40;0.00;;;;;;;25.38;44.41;99697.25;126097;1093;102966;-72
2021/08/01 08:57:49;;;;;;;0.40;0.00;;;;;;;25.51;42.12;99689.55;126049;1093;114268;-72
2021/08/01 09:00:17;;;;;;;0.40;0.00;;;;;;;25.72;40.77;99695.71;126077;1092;103017;-72
2021/08/01 09:02:44;;;;;;;0.40;0.00;;;;;;;25.84;40.61;99684.41;126042;1093;103007;-72
2021/08/01 09:05:11;;;;;;;0.40;0.00;;;;;;;25.99;39.53;99681.97;125999;1093;114111;-72
2021/08/01 09:07:40;;;;;;;0.40;0.00;;;;;;;26.07;39.48;99681.22;126025;1093;102943;-71
2021/08/01 09:10:12;;;;;;;0.40;0.00;;;;;;;26.16;39.52;99684.85;125941;1095;114125;-70
2021/08/01 09:12:41;;;;;;;0.40;0.00;;;;;;;26.20;40.06;99678.94;126082;1093;102908;-71
2021/08/01 09:15:21;;;;;;;0.40;0.00;;;;;;;26.18;39.04;99675.49;126077;1093;103000;-71
2021/08/01 09:17:49;;;;;;;0.40;0.00;;;;;;;26.03;40.08;99674.34;125915;1093;114312;-72
2021/08/01 09:20:30;;;;;;;0.40;0.00;;;;;;;25.95;38.09;99668.79;125997;1093;102889;-71
2021/08/01 09:23:09;;;;;;;0.40;0.00;;;;;;;25.99;39.35;99672.91;125929;1093;113938;-71
2021/08/01 09:25:39;;;;;;;0.40;0.00;;;;;;;25.99;40.83;99662.00;126027;1093;103015;-71
2021/08/01 09:28:16;;;;;;;0.40;0.00;;;;;;;26.10;38.15;99652.73;125868;1093;114124;-71
2021/08/01 09:31:06;;;;;;;0.40;0.00;;;;;;;26.41;37.74;99646.81;125932;1092;102879;-72
2021/08/01 09:33:42;;;;;;;0.40;0.00;;;;;;;27.42;35.47;99654.27;125779;1093;114690;-72
2021/08/01 09:36:11;;;;;;;0.40;0.00;;;;;;;27.84;33.65;99646.94;125910;1093;102910;-72
2021/08/01 09:38:58;;;;;;;0.40;0.00;;;;;;;28.52;34.41;99637.47;125979;1093;102978;-72
2021/08/01 09:41:36;;;;;;;0.40;0.00;;;;;;;28.75;36.47;99633.98;125818;1092;113973;-72
2021/08/01 09:44:07;;;;;;;0.40;0.00;;;;;;;28.74;35.52;99629.53;125943;1093;102881;-72
2021/08/01 09:46:48;;;;;;;0.40;0.00;;;;;;;28.72;36.02;99628.00;125794;1093;114099;-72
2021/08/01 09:49:22;;;;;;;0.40;0.00;;;;;;;28.32;35.95;99636.13;125968;1092;103001;-72
2021/08/01 09:51:50;;;;;;;0.40;0.00;;;;;;;27.86;33.84;99632.05;125974;1093;115772;-71
2021/08/01 09:54:19;;;;;;;0.40;0.00;;;;;;;27.59;34.38;99632.39;127028;1093;103377;-72
2021/08/01 09:57:17;;;;;;;0.40;0.00;;;;;;;27.29;31.96;99629.25;126055;1093;103089;-72
2021/08/01 09:59:47;;;;;;;0.40;0.00;;;;;;;27.08;34.13;99624.25;126548;1093;114799;-72
2021/08/01 10:02:14;;;;;;;0.40;0.00;;;;;;;26.96;34.90;99623.70;126084;1093;102722;-72
2021/08/01 10:04:42;;;;;;;0.40;0.00;;;;;;;26.94;34.75;99618.40;125951;1093;114091;-72
2021/08/01 10:07:18;;;;;;;0.40;0.00;;;;;;;26.83;36.72;99622.30;126089;1093;103113;-72
2021/08/01 10:09:49;;;;;;;0.40;0.00;;;;;;;26.70;38.44;99619.14;126036;1093;114084;-72
2021/08/01 10:12:16;;;;;;;0.40;0.00;;;;;;;26.63;37.92;99615.33;126134;1093;102913;-72
2021/08/01 10:14:44;;;;;;;0.40;0.00;;;;;;;26.62;37.35;99605.45;126051;1092;102878;-73
2021/08/01 10:17:11;;;;;;;0.40;0.00;;;;;;;26.62;38.18;99595.38;125955;1093;113973;-73
2021/08/01 10:19:38;;;;;;;0.40;0.00;;;;;;;26.59;39.41;99603.03;126077;1093;102903;-72
2021/08/01 10:22:06;;;;;;;0.40;0.00;;;;;;;26.48;38.77;99595.98;125933;1092;114523;-72
2021/08/01 10:24:45;;;;;;;0.40;0.00;;;;;;;26.39;39.42;99594.23;126044;1093;103093;-72
2021/08/01 10:27:14;;;;;;;0.40;0.00;;;;;;;26.26;37.95;99586.47;126031;1093;101891;-72
2021/08/01 10:29:53;;;;;;;0.40;0.00;;;;;;;26.09;39.48;99591.00;126004;1093;114247;-73
2021/08/01 10:32:21;;;;;;;0.40;0.00;;;;;;;25.95;39.90;99593.27;126096;1093;102700;-73
2021/08/01 10:35:08;;;;;;;0.40;0.00;;;;;;;25.85;41.52;99587.05;125958;1093;113970;-72
2021/08/01 10:37:50;;;;;;;0.40;0.00;;;;;;;25.72;38.92;99589.34;126071;1093;103178;-72
2021/08/01 10:40:22;;;;;;;0.40;0.00;;;;;;;25.54;37.97;99590.23;125980;1093;113938;-72
2021/08/01 10:42:52;;;;;;;0.40;0.00;;;;;;;25.50;40.14;99583.38;126021;1093;102888;-72
2021/08/01 10:45:20;;;;;;;0.40;0.00;;;;;;;25.45;38.86;99585.72;125996;1093;103002;-72
2021/08/01 10:47:51;;;;;;;0.40;0.00;;;;;;;25.39;39.73;99584.45;125835;1095;114435;-72
2021/08/01 10:50:31;;;;;;;0.40;0.00;;;;;;;25.37;40.80;99589.22;125948;1096;102977;-71
2021/08/01 10:53:26;;;;;;;0.40;0.00;;;;;;;25.30;38.64;99586.23;125968;1092;114464;-71
2021/08/01 10:56:07;;;;;;;0.40;0.00;;;;;;;25.30;41.17;99574.48;126017;1093;103070;-72
2021/08/01 10:58:35;;;;;;;0.40;0.00;;;;;;;25.29;39.94;99568.16;125994;1096;113993;-71
2021/08/01 11:01:03;;;;;;;0.40;0.00;;;;;;;25.30;39.90;99561.70;126079;1093;103020;-72
2021/08/01 11:03:33;;;;;;;0.40;0.00;;;;;;;25.35;42.97;99567.58;125989;1093;114645;-71
2021/08/01 11:06:01;;;;;;;0.40;0.00;;;;;;;25.32;41.14;99559.66;126164;1093;103287;-73
2021/08/01 11:08:29;;;;;;;0.40;0.00;;;;;;;25.29;41.56;99557.25;125986;1095;103103;-72
2021/08/01 11:11:16;;;;;;;0.40;0.00;;;;;;;25.25;42.96;99549.56;126012;1092;114113;-73
2021/08/01 11:13:45;;;;;;;0.40;0.00;;;;;;;25.25;42.68;99544.95;126033;1093;103623;-71
2021/08/01 11:16:42;;;;;;;0.40;0.00;;;;;;;25.29;43.50;99540.05;125921;1096;114109;-71
2021/08/01 11:19:35;;;;;;;0.40;0.00;;;;;;;25.37;44.16;99540.16;125996;1093;102914;-72
2021/08/01 11:22:03;;;;;;;0.40;0.00;;;;;;;25.45;45.04;99536.64;126038;1093;114237;-72
2021/08/01 11:24:31;;;;;;;0.40;0.00;;;;;;;25.44;43.97;99543.10;126381;1093;102903;-71
2021/08/01 11:27:04;;;;;;;0.40;0.00;;;;;;;25.33;43.10;99542.30;126731;1093;103134;-72
2021/08/01 11:29:32;;;;;;;0.40;0.00;;;;;;;25.28;43.44;99544.63;125985;1095;114435;-71